createdAt,value
2022-07-27T00:00:48.947Z,101676.78
2022-07-27T00:03:16.125Z,101670.81
2022-07-27T00:05:43.078Z,101675.94
2022-07-27T00:08:09.938Z,101669.78
2022-07-27T00:10:37.697Z,101677.59
2022-07-27T00:13:06.346Z,101673.28
2022-07-27T00:15:34.757Z,101672.66
2022-07-27T00:18:01.659Z,101670.34
2022-07-27T00:20:29.547Z,101666.84
2022-07-27T00:22:56.622Z,101669.91
2022-07-27T00:25:24.880Z,101671.91
2022-07-27T00:27:51.753Z,101665.13
2022-07-27T00:30:18.637Z,101655.84
2022-07-27T00:32:46.412Z,101654.19
2022-07-27T00:35:14.120Z,101650.69
2022-07-27T00:37:41.176Z,101642.88
2022-07-27T00:40:09.096Z,101651.88
2022-07-27T00:42:36.627Z,101643.09
2022-07-27T00:45:05.476Z,101645.94
2022-07-27T00:47:32.718Z,101645.28
2022-07-27T00:50:00.022Z,101651.81
2022-07-27T00:52:28.718Z,101647.69
2022-07-27T00:54:55.915Z,101648.91
2022-07-27T00:57:23.920Z,101643.91
2022-07-27T00:59:50.931Z,101643.47
2022-07-27T01:02:19.364Z,101644.31
2022-07-27T01:04:49.743Z,101645.75
2022-07-27T01:07:21.796Z,101654.84
2022-07-27T01:09:56.838Z,101642.34
2022-07-27T01:12:26.985Z,101652.19
2022-07-27T01:14:55.059Z,101642.91
2022-07-27T01:17:21.929Z,101642.91
2022-07-27T01:19:48.905Z,101641.72
2022-07-27T01:22:15.877Z,101642.91
2022-07-27T01:24:42.711Z,101640.06
2022-07-27T01:27:09.652Z,101643.56
2022-07-27T01:29:37.831Z,101639.88
2022-07-27T01:32:04.999Z,101636.38
2022-07-27T01:34:35.225Z,101645.22
2022-07-27T01:37:03.031Z,101633.06
2022-07-27T01:39:30.577Z,101638.78
2022-07-27T01:41:57.878Z,101633.63
2022-07-27T01:44:24.990Z,101632.81
2022-07-27T01:46:51.958Z,101628.28
2022-07-27T01:49:19.137Z,101629.97
2022-07-27T01:51:46.131Z,101642.47
2022-07-27T01:54:13.065Z,101637.75
2022-07-27T01:56:40.030Z,101634.72
2022-07-27T01:59:06.924Z,101625.06
2022-07-27T02:01:33.832Z,101626.06
2022-07-27T02:04:00.710Z,101625.06
2022-07-27T02:06:27.501Z,101624.88
2022-07-27T02:08:54.382Z,101622.84
2022-07-27T02:11:39.607Z,101621.22
2022-07-27T02:14:06.471Z,101618.91
2022-07-27T02:16:33.382Z,101619.09
2022-07-27T02:19:00.602Z,101622.97
2022-07-27T02:21:31.673Z,101618.00
2022-07-27T02:23:58.537Z,101613.88
2022-07-27T02:26:25.365Z,101610.38
2022-07-27T02:28:52.174Z,101617.19
2022-07-27T02:31:19.024Z,101614.97
2022-07-27T02:33:45.878Z,101612.94
2022-07-27T02:36:12.811Z,101618.28
2022-07-27T02:38:40.202Z,101607.63
2022-07-27T02:41:07.019Z,101612.28
2022-07-27T02:43:33.892Z,101608.34
2022-07-27T02:46:00.782Z,101609.38
2022-07-27T02:48:27.753Z,101605.03
2022-07-27T02:50:54.612Z,101606.88
2022-07-27T02:53:21.512Z,101603.75
2022-07-27T02:55:48.375Z,101593.75
2022-07-27T02:58:15.305Z,101595.38
2022-07-27T03:00:42.208Z,101602.38
2022-07-27T03:03:09.026Z,101599.72
2022-07-27T03:05:35.898Z,101601.38
2022-07-27T03:08:02.936Z,101605.88
2022-07-27T03:10:29.925Z,101589.22
2022-07-27T03:12:57.143Z,101596.03
2022-07-27T03:15:24.701Z,101595.19
2022-07-27T03:17:53.130Z,101594.38
2022-07-27T03:20:19.947Z,101599.53
2022-07-27T03:22:46.778Z,101595.03
2022-07-27T03:25:13.677Z,101592.78
2022-07-27T03:27:40.551Z,101593.63
2022-07-27T03:30:08.280Z,101594.63
2022-07-27T03:32:35.150Z,101588.28
2022-07-27T03:35:02.078Z,101585.44
2022-07-27T03:37:28.916Z,101588.94
2022-07-27T03:39:55.729Z,101586.06
2022-07-27T03:42:22.566Z,101592.22
2022-07-27T03:44:49.380Z,101589.75
2022-07-27T03:47:16.219Z,101593.63
2022-07-27T03:49:43.112Z,101591.78
2022-07-27T03:52:15.674Z,101590.78
2022-07-27T03:54:44.512Z,101585.44
2022-07-27T03:57:11.310Z,101582.13
2022-07-27T03:59:38.299Z,101580.28
2022-07-27T04:02:06.504Z,101590.97
2022-07-27T04:04:33.620Z,101591.97
2022-07-27T04:07:00.790Z,101595.63
2022-07-27T04:09:28.851Z,101591.53
2022-07-27T04:11:58.997Z,101593.19
2022-07-27T04:14:26.693Z,101592.16
2022-07-27T04:16:53.862Z,101597.69
2022-07-27T04:19:21.665Z,101596.84
2022-07-27T04:21:49.214Z,101592.34
2022-07-27T04:24:16.462Z,101594.81
2022-07-27T04:26:44.327Z,101594.19
2022-07-27T04:29:11.730Z,101589.88
2022-07-27T04:31:39.456Z,101592.09
2022-07-27T04:34:09.195Z,101590.44
2022-07-27T04:36:38.975Z,101594.50
2022-07-27T04:39:06.747Z,101593.22
2022-07-27T04:41:33.832Z,101595.06
2022-07-27T04:44:01.170Z,101590.06
2022-07-27T04:46:32.540Z,101597.91
2022-07-27T04:48:59.571Z,101604.69
2022-07-27T04:51:29.992Z,101608.00
2022-07-27T04:54:00.093Z,101601.66
2022-07-27T04:56:27.482Z,101600.84
2022-07-27T04:58:55.952Z,101608.84
2022-07-27T05:01:23.608Z,101607.00
2022-07-27T05:03:50.913Z,101609.66
2022-07-27T05:06:18.415Z,101606.81
2022-07-27T05:08:45.274Z,101607.25
2022-07-27T05:11:12.636Z,101605.44
2022-07-27T05:13:42.815Z,101615.88
2022-07-27T05:16:29.130Z,101611.75
2022-07-27T05:18:57.945Z,101608.44
2022-07-27T05:21:25.433Z,101614.16
2022-07-27T05:23:52.582Z,101619.06
2022-07-27T05:26:19.414Z,101615.06
2022-07-27T05:28:46.297Z,101618.13
2022-07-27T05:31:13.162Z,101627.13
2022-07-27T05:33:41.332Z,101626.94
2022-07-27T05:36:13.805Z,101623.47
2022-07-27T05:38:40.849Z,101634.94
2022-07-27T05:41:08.266Z,101634.56
2022-07-27T05:43:35.590Z,101629.44
2022-07-27T05:46:02.925Z,101633.13
2022-07-27T05:48:29.883Z,101632.28
2022-07-27T05:50:56.917Z,101636.63
2022-07-27T05:53:23.777Z,101636.63
2022-07-27T05:55:59.111Z,101630.91
2022-07-27T05:58:28.168Z,101641.84
2022-07-27T06:00:56.798Z,101639.63
2022-07-27T06:03:24.605Z,101639.44
2022-07-27T06:05:52.268Z,101643.19
2022-07-27T06:08:19.129Z,101632.16
2022-07-27T06:10:46.290Z,101640.63
2022-07-27T06:13:14.103Z,101641.72
2022-07-27T06:15:41.344Z,101644.44
2022-07-27T06:18:18.709Z,101638.38
2022-07-27T06:20:47.077Z,101644.78
2022-07-27T06:23:14.002Z,101638.28
2022-07-27T06:25:40.791Z,101635.38
2022-07-27T06:28:17.256Z,101640.53
2022-07-27T06:30:44.078Z,101644.88
2022-07-27T06:33:10.973Z,101647.53
2022-07-27T06:35:39.182Z,101642.00
2022-07-27T06:38:18.662Z,101641.63
2022-07-27T06:40:45.581Z,101648.63
2022-07-27T06:43:13.416Z,101648.25
2022-07-27T06:45:40.461Z,101647.06
2022-07-27T06:48:19.650Z,101645.84
2022-07-27T06:50:46.693Z,101651.59
2022-07-27T06:53:18.961Z,101661.72
2022-07-27T06:55:48.011Z,101663.84
2022-07-27T06:58:21.911Z,101665.69
2022-07-27T07:00:48.875Z,101669.19
2022-07-27T07:03:16.491Z,101664.47
2022-07-27T07:05:47.007Z,101661.63
2022-07-27T07:08:20.125Z,101663.44
2022-07-27T07:10:47.483Z,101658.78
2022-07-27T07:13:14.982Z,101673.59
2022-07-27T07:15:43.809Z,101671.34
2022-07-27T07:18:19.626Z,101668.69
2022-07-27T07:20:46.532Z,101668.91
2022-07-27T07:23:13.621Z,101669.16
2022-07-27T07:25:41.320Z,101672.25
2022-07-27T07:28:25.930Z,101668.41
2022-07-27T07:30:52.938Z,101675.00
2022-07-27T07:33:20.144Z,101674.19
2022-07-27T07:36:13.498Z,101673.16
2022-07-27T07:38:34.713Z,101671.31
2022-07-27T07:41:01.657Z,101671.94
2022-07-27T07:43:29.674Z,101672.00
2022-07-27T07:45:57.621Z,101673.28
2022-07-27T07:48:29.862Z,101672.50
2022-07-27T07:50:57.461Z,101674.19
2022-07-27T07:53:24.917Z,101672.59
2022-07-27T07:55:53.846Z,101686.41
2022-07-27T07:58:23.597Z,101689.53
2022-07-27T08:00:50.861Z,101686.84
2022-07-27T08:03:19.101Z,101686.66
2022-07-27T08:05:46.420Z,101685.63
2022-07-27T08:08:24.877Z,101694.47
2022-07-27T08:10:52.283Z,101690.97
2022-07-27T08:13:22.179Z,101689.94
2022-07-27T08:15:51.505Z,101690.97
2022-07-27T08:18:22.631Z,101691.78
2022-07-27T08:20:50.033Z,101701.66
2022-07-27T08:23:16.951Z,101690.34
2022-07-27T08:25:43.879Z,101689.13
2022-07-27T08:28:24.016Z,101682.38
2022-07-27T08:30:50.964Z,101680.34
2022-07-27T08:33:18.082Z,101687.59
2022-07-27T08:35:46.264Z,101690.25
2022-07-27T08:38:21.470Z,101687.00
2022-07-27T08:40:50.594Z,101684.41
2022-07-27T08:43:24.726Z,101689.78
2022-07-27T08:46:01.583Z,101685.13
2022-07-27T08:48:31.554Z,101688.66
2022-07-27T08:50:59.186Z,101675.13
2022-07-27T08:53:26.592Z,101675.38
2022-07-27T08:56:13.679Z,101677.88
2022-07-27T08:58:40.789Z,101673.97
2022-07-27T09:01:07.991Z,101679.75
2022-07-27T09:03:35.332Z,101683.66
2022-07-27T09:06:02.279Z,101684.09
2022-07-27T09:08:30.903Z,101674.66
2022-07-27T09:10:59.989Z,101676.09
2022-07-27T09:13:34.961Z,101669.13
2022-07-27T09:16:24.248Z,101678.41
2022-07-27T09:19:10.975Z,101676.78
2022-07-27T09:21:38.413Z,101670.88
2022-07-27T09:24:43.930Z,101679.72
2022-07-27T09:27:06.037Z,101684.44
2022-07-27T09:29:37.117Z,101675.56
2022-07-27T09:32:16.171Z,101673.69
2022-07-27T09:34:43.865Z,101668.94
2022-07-27T09:37:11.430Z,101670.97
2022-07-27T09:39:39.484Z,101668.91
2022-07-27T09:42:08.281Z,101675.69
2022-07-27T09:44:44.880Z,101674.63
2022-07-27T09:47:27.250Z,101670.47
2022-07-27T09:50:17.761Z,101669.03
2022-07-27T09:52:45.805Z,101676.25
2022-07-27T09:55:13.448Z,101676.25
2022-07-27T09:57:59.242Z,101667.19
2022-07-27T10:00:27.546Z,101665.13
2022-07-27T10:02:56.828Z,101662.69
2022-07-27T10:05:24.356Z,101664.94
2022-07-27T10:07:53.991Z,101659.78
2022-07-27T10:10:22.520Z,101659.59
2022-07-27T10:12:54.711Z,101671.13
2022-07-27T10:15:25.598Z,101660.22
2022-07-27T10:18:07.156Z,101660.47
2022-07-27T10:20:38.704Z,101652.00
2022-07-27T10:23:07.390Z,101651.81
2022-07-27T10:25:38.211Z,101654.31
2022-07-27T10:28:22.634Z,101648.53
2022-07-27T10:30:54.268Z,101652.66
2022-07-27T10:33:55.303Z,101653.09
2022-07-27T10:36:24.937Z,101653.69
2022-07-27T10:38:56.662Z,101642.16
2022-07-27T10:41:43.986Z,101647.13
2022-07-27T10:44:17.807Z,101640.56
2022-07-27T10:46:46.915Z,101644.50
2022-07-27T10:49:22.894Z,101646.78
2022-07-27T10:51:53.691Z,101637.50
2022-07-27T10:54:29.420Z,101639.78
2022-07-27T10:56:59.362Z,101642.88
2022-07-27T11:00:07.355Z,101634.47
2022-07-27T11:02:39.657Z,101641.44
2022-07-27T11:05:06.781Z,101635.06
2022-07-27T11:07:44.305Z,101639.19
2022-07-27T11:10:13.255Z,101636.94
2022-07-27T11:12:41.589Z,101636.72
2022-07-27T11:15:09.496Z,101629.09
2022-07-27T11:20:31.608Z,101627.88
2022-07-27T11:26:02.745Z,101632.19
2022-07-27T11:28:31.995Z,101627.69
2022-07-27T11:30:59.892Z,101620.84
2022-07-27T11:33:27.701Z,101629.31
2022-07-27T11:35:59.540Z,101620.66
2022-07-27T11:38:27.235Z,101627.06
2022-07-27T11:40:57.055Z,101623.94
2022-07-27T11:43:37.061Z,101616.34
2022-07-27T11:46:16.788Z,101615.69
2022-07-27T11:49:06.798Z,101621.88
2022-07-27T11:52:02.177Z,101609.94
2022-07-27T11:54:32.784Z,101609.50
2022-07-27T11:57:02.252Z,101610.56
2022-07-27T11:59:36.609Z,101608.91
2022-07-27T12:02:07.538Z,101609.50
2022-07-27T12:04:36.569Z,101612.19
2022-07-27T12:07:15.982Z,101609.31
2022-07-27T12:09:48.915Z,101613.84
2022-07-27T12:12:20.477Z,101607.66
2022-07-27T12:14:52.030Z,101609.31
2022-07-27T12:17:20.475Z,101601.91
2022-07-27T12:19:54.488Z,101600.06
2022-07-27T12:22:37.064Z,101602.50
2022-07-27T12:25:24.573Z,101594.72
2022-07-27T12:28:03.306Z,101597.78
2022-07-27T12:30:48.275Z,101607.88
2022-07-27T12:33:36.518Z,101596.16
2022-07-27T12:36:06.762Z,101595.31
2022-07-27T12:38:41.653Z,101592.84
2022-07-27T12:41:11.015Z,101589.13
2022-07-27T12:43:39.467Z,101583.78
2022-07-27T12:46:16.300Z,101587.28
2022-07-27T12:48:43.814Z,101584.59
2022-07-27T12:51:11.476Z,101582.94
2022-07-27T12:53:40.547Z,101579.44
2022-07-27T12:56:11.738Z,101585.63
2022-07-27T12:58:38.619Z,101577.41
2022-07-27T13:01:06.591Z,101579.84
2022-07-27T13:03:33.679Z,101579.25
2022-07-27T13:06:09.254Z,101588.50
2022-07-27T13:08:40.228Z,101580.69
2022-07-27T13:11:07.751Z,101590.16
2022-07-27T13:13:34.926Z,101587.69
2022-07-27T13:16:02.081Z,101588.53
2022-07-27T13:18:32.041Z,101578.00
2022-07-27T13:20:59.360Z,101574.50
2022-07-27T13:23:27.017Z,101573.69
2022-07-27T13:25:54.565Z,101576.16
2022-07-27T13:28:29.506Z,101560.28
2022-07-27T13:30:57.354Z,101562.38
2022-07-27T13:33:24.870Z,101565.03
2022-07-27T13:35:59.097Z,101569.75
2022-07-27T13:38:30.714Z,101568.09
2022-07-27T13:40:57.678Z,101564.41
2022-07-27T13:43:24.973Z,101567.09
2022-07-27T13:45:52.227Z,101561.31
2022-07-27T13:48:26.641Z,101570.56
2022-07-27T13:50:53.611Z,101571.59
2022-07-27T13:53:21.298Z,101578.63
2022-07-27T13:55:48.841Z,101570.56
2022-07-27T13:58:20.757Z,101565.22
2022-07-27T14:00:50.216Z,101571.41
2022-07-27T14:03:17.674Z,101567.72
2022-07-27T14:05:49.554Z,101559.66
2022-07-27T14:08:23.779Z,101560.28
2022-07-27T14:10:51.276Z,101565.44
2022-07-27T14:13:18.926Z,101560.06
2022-07-27T14:15:50.601Z,101559.25
2022-07-27T14:18:32.083Z,101557.41
2022-07-27T14:21:02.614Z,101554.13
2022-07-27T14:23:30.406Z,101553.91
2022-07-27T14:26:01.627Z,101551.22
2022-07-27T14:28:32.628Z,101549.38
2022-07-27T14:31:00.991Z,101550.81
2022-07-27T14:33:32.021Z,101553.69
2022-07-27T14:36:05.311Z,101553.50
2022-07-27T14:38:32.251Z,101542.78
2022-07-27T14:41:01.215Z,101548.16
2022-07-27T14:43:29.441Z,101541.72
2022-07-27T14:45:57.163Z,101534.75
2022-07-27T14:48:42.620Z,101539.88
2022-07-27T14:51:13.128Z,101524.44
2022-07-27T14:53:40.091Z,101523.19
2022-07-27T14:56:07.324Z,101530.44
2022-07-27T14:58:34.297Z,101530.19
2022-07-27T15:01:02.381Z,101522.16
2022-07-27T15:03:29.552Z,101514.38
2022-07-27T15:05:56.793Z,101513.31
2022-07-27T15:08:24.837Z,101507.13
2022-07-27T15:10:51.933Z,101505.50
2022-07-27T15:13:19.186Z,101500.16
2022-07-27T15:15:49.022Z,101500.16
2022-07-27T15:18:19.939Z,101505.50
2022-07-27T15:20:50.162Z,101504.44
2022-07-27T15:23:17.034Z,101499.09
2022-07-27T15:25:44.481Z,101495.38
2022-07-27T15:28:17.344Z,101489.63
2022-07-27T15:30:44.934Z,101488.81
2022-07-27T15:33:12.020Z,101494.75
2022-07-27T15:35:41.518Z,101495.59
2022-07-27T15:38:18.885Z,101486.31
2022-07-27T15:40:45.946Z,101487.16
2022-07-27T15:43:15.483Z,101486.31
2022-07-27T15:45:45.751Z,101481.78
2022-07-27T15:48:22.798Z,101470.25
2022-07-27T15:50:52.845Z,101478.06
2022-07-27T15:53:23.053Z,101475.19
2022-07-27T15:55:52.018Z,101469.63
2022-07-27T15:58:19.759Z,101468.38
2022-07-27T16:00:48.519Z,101468.16
2022-07-27T16:03:16.185Z,101471.88
2022-07-27T16:05:44.643Z,101469.00
2022-07-27T16:08:17.542Z,101469.00
2022-07-27T16:10:46.204Z,101457.03
2022-07-27T16:13:13.925Z,101458.06
2022-07-27T16:16:00.965Z,101463.63
2022-07-27T16:18:28.443Z,101459.50
2022-07-27T16:20:56.214Z,101450.03
2022-07-27T16:23:23.519Z,101454.38
2022-07-27T16:26:06.119Z,101450.88
2022-07-27T16:28:36.810Z,101452.53
2022-07-27T16:31:05.828Z,101453.75
2022-07-27T16:33:32.861Z,101450.47
2022-07-27T16:36:00.362Z,101442.44
2022-07-27T16:38:27.473Z,101454.19
2022-07-27T16:40:54.399Z,101452.53
2022-07-27T16:43:21.383Z,101449.03
2022-07-27T16:45:48.360Z,101450.28
2022-07-27T16:48:16.906Z,101444.31
2022-07-27T16:50:43.802Z,101451.50
2022-07-27T16:53:11.408Z,101450.69
2022-07-27T16:55:38.362Z,101451.50
2022-07-27T16:58:12.974Z,101439.16
2022-07-27T17:00:40.092Z,101445.13
2022-07-27T17:03:07.045Z,101438.31
2022-07-27T17:05:34.441Z,101439.38
2022-07-27T17:08:01.538Z,101448.63
2022-07-27T17:10:28.525Z,101439.56
2022-07-27T17:12:57.964Z,101439.56
2022-07-27T17:15:29.573Z,101425.34
2022-07-27T17:17:56.565Z,101424.34
2022-07-27T17:20:32.817Z,101434.22
2022-07-27T17:23:03.931Z,101432.38
2022-07-27T17:25:30.964Z,101424.53
2022-07-27T17:27:58.444Z,101423.91
2022-07-27T17:30:25.386Z,101426.59
2022-07-27T17:32:53.532Z,101421.47
2022-07-27T17:35:20.753Z,101421.47
2022-07-27T17:38:05.577Z,101428.03
2022-07-27T17:40:34.303Z,101422.69
2022-07-27T17:43:01.425Z,101428.88
2022-07-27T17:45:28.377Z,101424.34
2022-07-27T17:47:55.798Z,101427.84
2022-07-27T17:50:22.989Z,101424.34
2022-07-27T17:52:50.306Z,101424.34
2022-07-27T17:55:17.766Z,101422.69
2022-07-27T17:57:45.468Z,101424.53
2022-07-27T18:00:13.102Z,101421.25
2022-07-27T18:02:40.416Z,101416.72
2022-07-27T18:05:07.747Z,101419.41
2022-07-27T18:07:39.024Z,101408.69
2022-07-27T18:10:09.000Z,101410.53
2022-07-27T18:12:37.054Z,101419.59
2022-07-27T18:15:23.669Z,101423.31
2022-07-27T18:17:50.891Z,101414.44
2022-07-27T18:20:17.977Z,101413.63
2022-07-27T18:22:45.291Z,101420.84
2022-07-27T18:25:12.926Z,101410.13
2022-07-27T18:27:40.886Z,101416.31
2022-07-27T18:30:08.609Z,101410.13
2022-07-27T18:32:36.242Z,101414.44
2022-07-27T18:35:03.456Z,101407.66
2022-07-27T18:37:30.790Z,101405.41
2022-07-27T18:39:57.864Z,101407.03
2022-07-27T18:42:24.944Z,101408.91
2022-07-27T18:44:52.415Z,101403.53
2022-07-27T18:47:20.015Z,101414.06
2022-07-27T18:49:49.800Z,101411.56
2022-07-27T18:52:16.866Z,101405.63
2022-07-27T18:54:43.924Z,101413.03
2022-07-27T18:57:11.199Z,101413.22
2022-07-27T18:59:41.070Z,101411.59
2022-07-27T19:02:08.666Z,101420.44
2022-07-27T19:04:39.234Z,101411.59
2022-07-27T19:07:09.589Z,101411.81
2022-07-27T19:09:36.732Z,101408.94
2022-07-27T19:12:09.183Z,101409.13
2022-07-27T19:14:37.266Z,101401.09
2022-07-27T19:17:04.677Z,101410.97
2022-07-27T19:19:32.131Z,101401.28
2022-07-27T19:21:59.394Z,101403.16
2022-07-27T19:24:27.031Z,101404.38
2022-07-27T19:26:54.382Z,101409.72
2022-07-27T19:29:23.008Z,101406.81
2022-07-27T19:31:50.304Z,101407.03
2022-07-27T19:34:18.340Z,101414.25
2022-07-27T19:36:45.864Z,101415.91
2022-07-27T19:39:13.147Z,101408.91
2022-07-27T19:41:40.811Z,101416.53
2022-07-27T19:44:09.050Z,101428.25
2022-07-27T19:46:36.837Z,101424.94
2022-07-27T19:49:04.202Z,101427.81
2022-07-27T19:51:31.379Z,101425.78
2022-07-27T19:53:58.972Z,101426.59
2022-07-27T19:56:26.193Z,101436.69
2022-07-27T19:58:53.249Z,101438.75
2022-07-27T20:01:20.344Z,101438.13
2022-07-27T20:03:54.259Z,101440.19
2022-07-27T20:06:25.811Z,101437.72
2022-07-27T20:08:56.251Z,101440.41
2022-07-27T20:11:23.259Z,101440.81
2022-07-27T20:13:50.140Z,101441.22
2022-07-27T20:16:18.130Z,101445.72
2022-07-27T20:18:45.402Z,101450.47
2022-07-27T20:21:22.327Z,101451.69
2022-07-27T20:23:52.152Z,101454.59
2022-07-27T20:26:20.054Z,101456.66
2022-07-27T20:28:49.391Z,101460.34
2022-07-27T20:31:16.409Z,101464.88
2022-07-27T20:33:43.365Z,101470.63
2022-07-27T20:36:10.145Z,101462.81
2022-07-27T20:38:36.967Z,101471.03
2022-07-27T20:41:03.943Z,101466.91
2022-07-27T20:43:31.984Z,101465.25
2022-07-27T20:45:59.126Z,101466.28
2022-07-27T20:48:26.050Z,101466.88
2022-07-27T20:50:52.883Z,101461.97
2022-07-27T20:53:22.802Z,101455.78
2022-07-27T20:55:49.652Z,101459.66
2022-07-27T20:58:16.596Z,101461.56
2022-07-27T21:00:43.483Z,101456.41
2022-07-27T21:03:10.406Z,101465.44
2022-07-27T21:05:37.237Z,101462.13
2022-07-27T21:08:11.550Z,101465.22
2022-07-27T21:10:38.899Z,101460.06
2022-07-27T21:13:05.821Z,101467.66
2022-07-27T21:15:34.129Z,101456.97
2022-07-27T21:18:01.880Z,101460.47
2022-07-27T21:20:29.275Z,101462.31
2022-07-27T21:23:14.922Z,101457.59
2022-07-27T21:25:41.932Z,101456.75
2022-07-27T21:28:17.025Z,101463.34
2022-07-27T21:30:45.769Z,101462.03
2022-07-27T21:33:12.610Z,101453.19
2022-07-27T21:35:39.531Z,101458.75
2022-07-27T21:38:13.190Z,101450.09
2022-07-27T21:40:40.008Z,101455.03
2022-07-27T21:43:06.830Z,101455.88
2022-07-27T21:45:33.721Z,101450.53
2022-07-27T21:48:00.699Z,101457.72
2022-07-27T21:50:27.712Z,101462.03
2022-07-27T21:52:54.633Z,101452.97
2022-07-27T21:55:22.902Z,101450.72
2022-07-27T21:57:50.764Z,101456.06
2022-07-27T22:00:24.116Z,101450.06
2022-07-27T22:02:52.520Z,101452.97
2022-07-27T22:05:19.438Z,101460.16
2022-07-27T22:07:46.261Z,101456.84
2022-07-27T22:10:13.223Z,101452.75
2022-07-27T22:12:40.192Z,101449.44
2022-07-27T22:15:07.738Z,101451.69
2022-07-27T22:17:34.579Z,101446.53
2022-07-27T22:20:01.609Z,101452.91
2022-07-27T22:22:28.464Z,101450.22
2022-07-27T22:24:55.355Z,101450.44
2022-07-27T22:27:22.288Z,101447.78
2022-07-27T22:29:49.275Z,101452.50
2022-07-27T22:32:16.322Z,101456.19
2022-07-27T22:34:43.206Z,101457.81
2022-07-27T22:37:10.087Z,101449.81
2022-07-27T22:39:41.785Z,101449.81
2022-07-27T22:42:10.177Z,101442.00
2022-07-27T22:44:38.300Z,101446.31
2022-07-27T22:47:05.917Z,101449.19
2022-07-27T22:49:36.917Z,101439.09
2022-07-27T22:52:07.391Z,101437.66
2022-07-27T22:54:36.827Z,101438.44
2022-07-27T22:57:07.574Z,101429.41
2022-07-27T22:59:35.280Z,101434.75
2022-07-27T23:02:02.532Z,101432.91
2022-07-27T23:04:30.022Z,101437.44
2022-07-27T23:06:58.170Z,101425.28
2022-07-27T23:09:25.137Z,101420.97
2022-07-27T23:11:52.818Z,101422.00
2022-07-27T23:14:19.736Z,101413.53
2022-07-27T23:16:46.629Z,101409.44
2022-07-27T23:19:13.597Z,101406.13
2022-07-27T23:21:42.100Z,101409.19
2022-07-27T23:24:11.126Z,101415.56
2022-07-27T23:26:39.167Z,101410.41
2022-07-27T23:29:06.001Z,101408.97
2022-07-27T23:31:33.046Z,101408.13
2022-07-27T23:33:59.999Z,101415.13
2022-07-27T23:36:27.334Z,101413.66
2022-07-27T23:38:54.154Z,101414.72
2022-07-27T23:41:21.072Z,101412.03
2022-07-27T23:43:47.865Z,101415.91
2022-07-27T23:46:14.796Z,101415.09
2022-07-27T23:48:41.907Z,101415.91
2022-07-27T23:51:09.395Z,101407.91
2022-07-27T23:53:37.036Z,101408.94
2022-07-27T23:56:03.999Z,101413.66
2022-07-27T23:58:30.907Z,101405.19
